Route Details

Aircraft Information
Group: European Fleet
Types: A30F, A31F, B738
Route Data
Distance: 1064nm
Duration: 2h 35m
Origin METAR: EDDK 171120Z AUTO 26005KT 200V330 CAVOK 25/15 Q1011 NOSIG
Dest. METAR: LTFM 171020Z 34015KT 300V010 9999 FEW032 30/17 Q1010 NOSIG RMK RWY17L 34014KT RWY34L 34013KT 300V360 RWY16R 34012KT RWY36 36014KT RWY18 35014KT
Freight Data
(for Aug 18, 2022)
Load Factor:
68%
Manifested Cargo: 62,374lbs
Financial History
Total Freight: 350,001lbs
Average Load: 0lbs/flt
Fuel Used: 139,701lbs
Avg. Fuel Used: 0lbs/flt
Fuel Expense: $58,430
Avg. Fuel Expense: $0
Avg. Fuel Cost: $0/lbs
Total Gross Income: $882,300
Pilot Pay: $1,036
Total Expenses: $133,341
Total Revenue: $687,368
Average Revenue: $0

Capitol Logistics 503




EDDK
Cologne Bonn Airport
Cologne, DE
LTFM
Istanbul Airport
Istanbul, TR